Time;durP1;ratioP1;P1;durP2;ratioP2;P2;SDS_P1;SDS_P2;PMS_P1;PMS_P2;Temp;Humidity;BMP_temperature;BMP_pressure;BME280_temperature;BME280_humidity;BME280_pressure;Samples;Min_cycle;Max_cycle;Signal;HPM_P1;HPM_P2
2024/03/10 00:00:16;;;;;;;20.05;8.55;;;9.20;74.20;;;;;;5098329;28;20047;-92
2024/03/10 00:02:43;;;;;;;17.85;9.88;;;9.10;74.40;;;;;;5100584;28;20015;-93
2024/03/10 00:05:12;;;;;;;17.58;10.75;;;9.10;75.10;;;;;;5093480;28;20020;-93
2024/03/10 00:07:39;;;;;;;17.02;9.05;;;9.00;75.70;;;;;;5110520;28;20028;-92
2024/03/10 00:10:05;;;;;;;14.50;9.13;;;9.00;75.20;;;;;;5097397;28;20020;-90
2024/03/10 00:12:31;;;;;;;15.88;9.07;;;9.00;76.50;;;;;;5093514;28;20041;-92
2024/03/10 00:14:57;;;;;;;14.13;8.98;;;8.90;76.20;;;;;;5096546;28;20110;-92
2024/03/10 00:17:22;;;;;;;14.65;9.40;;;8.90;76.90;;;;;;5101806;28;20397;-92
2024/03/10 00:19:48;;;;;;;17.35;9.55;;;8.90;76.40;;;;;;5098155;28;20027;-93
2024/03/10 00:22:14;;;;;;;15.40;10.38;;;8.90;76.10;;;;;;5105161;28;20020;-92
2024/03/10 00:24:42;;;;;;;14.85;8.98;;;8.90;77.30;;;;;;5100401;28;20116;-93
2024/03/10 00:27:08;;;;;;;15.95;8.23;;;8.90;77.60;;;;;;5100646;28;20509;-92
2024/03/10 00:29:34;;;;;;;15.57;9.52;;;8.80;76.60;;;;;;5104923;28;20021;-92
2024/03/10 00:32:00;;;;;;;15.40;8.57;;;8.80;76.80;;;;;;5091816;28;20036;-88
2024/03/10 00:34:25;;;;;;;11.52;7.05;;;8.80;76.20;;;;;;5102350;28;20008;-90
2024/03/10 00:36:51;;;;;;;14.10;8.70;;;8.90;75.90;;;;;;5103591;28;20111;-93
2024/03/10 00:39:17;;;;;;;15.40;9.35;;;8.90;76.30;;;;;;5099619;28;20024;-90
2024/03/10 00:41:42;;;;;;;15.02;8.85;;;8.80;77.20;;;;;;5097026;28;20110;-93
2024/03/10 00:44:08;;;;;;;15.98;9.35;;;8.80;77.40;;;;;;5095974;28;20391;-92
2024/03/10 00:46:34;;;;;;;16.52;9.32;;;8.70;77.60;;;;;;5106987;28;20072;-92
2024/03/10 00:48:59;;;;;;;15.60;9.15;;;8.70;77.20;;;;;;5100824;28;20039;-92
2024/03/10 00:51:25;;;;;;;15.73;8.98;;;8.70;77.10;;;;;;5095441;28;20031;-92
2024/03/10 00:53:51;;;;;;;12.50;8.75;;;8.80;77.20;;;;;;5092609;28;20020;-92
2024/03/10 00:56:19;;;;;;;15.10;8.90;;;8.80;76.70;;;;;;5096932;28;20080;-92
2024/03/10 00:58:45;;;;;;;14.35;8.75;;;8.80;76.80;;;;;;5101082;28;20020;-91
2024/03/10 01:01:11;;;;;;;15.93;9.07;;;8.80;76.70;;;;;;5097642;28;20024;-92
2024/03/10 01:03:40;;;;;;;13.82;9.35;;;8.80;76.50;;;;;;5102968;28;20024;-92
2024/03/10 01:06:06;;;;;;;12.95;7.93;;;8.80;76.00;;;;;;5092139;28;20081;-92
2024/03/10 01:08:32;;;;;;;15.85;8.57;;;8.80;75.90;;;;;;5101747;28;20024;-93
2024/03/10 01:10:58;;;;;;;15.70;9.13;;;8.90;75.50;;;;;;5097607;28;20024;-93
2024/03/10 01:13:24;;;;;;;13.90;9.35;;;8.80;75.10;;;;;;5109418;28;20522;-90
2024/03/10 01:15:50;;;;;;;11.88;7.50;;;8.80;75.40;;;;;;5095455;28;20218;-93
2024/03/10 01:18:15;;;;;;;13.57;7.35;;;8.80;75.30;;;;;;5095174;28;20016;-91
2024/03/10 01:20:41;;;;;;;13.40;7.97;;;8.80;75.00;;;;;;5089657;28;20108;-93
2024/03/10 01:23:07;;;;;;;13.73;9.05;;;8.90;75.10;;;;;;5094579;28;20069;-93
2024/03/10 01:25:33;;;;;;;12.95;8.48;;;8.80;75.00;;;;;;5111906;28;20012;-91
2024/03/10 01:27:59;;;;;;;13.88;7.75;;;8.90;74.80;;;;;;5114429;28;20027;-93
2024/03/10 01:30:24;;;;;;;11.63;8.23;;;8.80;74.70;;;;;;5114159;28;20024;-93
2024/03/10 01:32:50;;;;;;;14.57;8.00;;;8.80;74.70;;;;;;5106827;28;20076;-90
2024/03/10 01:35:16;;;;;;;13.98;8.48;;;8.80;74.30;;;;;;5105869;28;20051;-91
2024/03/10 01:37:41;;;;;;;12.70;7.65;;;8.90;74.40;;;;;;5090477;28;20011;-93
2024/03/10 01:40:09;;;;;;;12.35;8.02;;;8.90;74.10;;;;;;5122356;28;20221;-92
2024/03/10 01:42:35;;;;;;;13.02;8.85;;;8.90;74.60;;;;;;5121379;28;20020;-92
2024/03/10 01:45:02;;;;;;;10.93;7.95;;;8.90;74.60;;;;;;5117561;28;20050;-92
2024/03/10 01:47:28;;;;;;;12.07;7.93;;;8.80;74.20;;;;;;5117932;28;20020;-93
2024/03/10 01:49:54;;;;;;;13.52;8.38;;;8.90;74.60;;;;;;5124420;28;20004;-92
2024/03/10 01:52:21;;;;;;;9.80;7.03;;;8.80;74.40;;;;;;5114635;28;20044;-91
2024/03/10 01:54:47;;;;;;;10.05;6.88;;;8.90;73.70;;;;;;5095168;28;20028;-91
2024/03/10 01:57:14;;;;;;;9.90;6.60;;;8.90;73.90;;;;;;5095697;28;20021;-92
2024/03/10 01:59:40;;;;;;;11.63;6.68;;;8.90;73.90;;;;;;5106491;28;20024;-93
2024/03/10 02:02:06;;;;;;;11.88;7.10;;;8.90;73.90;;;;;;5114376;28;20031;-91
2024/03/10 02:04:32;;;;;;;11.73;7.70;;;8.90;73.60;;;;;;5108812;28;20039;-92
2024/03/10 02:06:59;;;;;;;10.35;7.35;;;8.80;73.80;;;;;;5106170;28;20034;-92
2024/03/10 02:09:24;;;;;;;14.52;7.97;;;8.90;74.00;;;;;;5101776;28;20054;-93
2024/03/10 02:11:51;;;;;;;12.85;8.50;;;8.90;73.20;;;;;;5101869;28;20669;-92
2024/03/10 02:14:16;;;;;;;12.23;6.70;;;8.90;73.00;;;;;;5100048;28;20023;-91
2024/03/10 02:16:43;;;;;;;14.45;7.32;;;8.80;73.20;;;;;;5104755;28;20035;-92
2024/03/10 02:19:08;;;;;;;10.00;6.82;;;8.90;73.30;;;;;;5090390;28;20028;-91
2024/03/10 02:21:34;;;;;;;11.25;6.55;;;8.90;73.70;;;;;;5097920;28;20055;-92
2024/03/10 02:24:19;;;;;;;13.07;7.05;;;8.90;72.80;;;;;;5099260;28;20016;-91
2024/03/10 02:26:46;;;;;;;10.80;6.45;;;8.90;72.40;;;;;;5097204;28;20024;-90
2024/03/10 02:29:18;;;;;;;10.68;7.28;;;9.00;71.90;;;;;;5098388;28;20096;-95
2024/03/10 02:48:13;;;;;;;11.00;6.10;;;9.10;71.50;;;;;;5105838;28;20182;-92
2024/03/10 02:50:39;;;;;;;9.95;7.15;;;9.10;71.20;;;;;;5100001;28;20036;-90
2024/03/10 02:53:05;;;;;;;10.77;6.20;;;9.10;70.70;;;;;;5099349;28;20055;-92
2024/03/10 02:55:32;;;;;;;12.35;6.40;;;9.10;71.10;;;;;;5111001;28;20062;-91
2024/03/10 02:58:03;;;;;;;11.45;7.15;;;9.20;70.60;;;;;;5096599;28;20012;-92
2024/03/10 03:00:30;;;;;;;8.98;6.25;;;9.10;71.10;;;;;;5095695;28;20062;-92
2024/03/10 03:02:56;;;;;;;10.40;6.10;;;9.10;71.20;;;;;;5100011;28;20024;-92
2024/03/10 03:05:22;;;;;;;10.00;5.85;;;9.10;71.30;;;;;;5103975;28;20568;-92
2024/03/10 03:07:48;;;;;;;10.27;6.53;;;9.10;71.60;;;;;;5095943;28;20020;-92
2024/03/10 03:10:15;;;;;;;11.68;6.63;;;9.10;71.80;;;;;;5091658;28;20098;-91
2024/03/10 03:12:44;;;;;;;10.25;5.18;;;9.00;71.40;;;;;;5089038;28;20467;-91
2024/03/10 03:15:09;;;;;;;10.07;6.28;;;9.10;71.80;;;;;;5097384;28;20563;-93
2024/03/10 03:17:41;;;;;;;11.40;6.22;;;9.00;71.90;;;;;;5097407;28;20020;-92
2024/03/10 03:20:17;;;;;;;11.52;5.75;;;9.00;71.80;;;;;;5096976;28;20020;-92
2024/03/10 03:22:47;;;;;;;9.40;6.60;;;9.00;71.90;;;;;;5093050;28;20546;-91
2024/03/10 03:25:13;;;;;;;12.52;7.22;;;9.00;72.00;;;;;;5096706;28;20139;-91
2024/03/10 03:27:41;;;;;;;8.20;5.70;;;9.00;71.90;;;;;;5108420;28;20047;-92
2024/03/10 03:30:07;;;;;;;;;;;9.00;71.70;;;;;;5099671;28;20036;-91
2024/03/10 03:32:35;;;;;;;11.15;5.82;;;9.00;72.20;;;;;;5096585;28;19930;-92
2024/03/10 03:35:01;;;;;;;11.98;6.90;;;9.00;72.70;;;;;;5095957;28;20035;-92
2024/03/10 03:37:26;;;;;;;8.85;6.22;;;9.00;72.80;;;;;;5095796;28;20016;-91
2024/03/10 03:39:53;;;;;;;11.75;6.78;;;8.90;73.20;;;;;;5097979;28;20081;-93
2024/03/10 03:42:19;;;;;;;13.95;6.68;;;8.90;73.90;;;;;;5099715;28;20055;-94
2024/03/10 03:44:44;;;;;;;10.13;5.97;;;8.90;74.10;;;;;;5095253;28;20630;-93
2024/03/10 03:47:11;;;;;;;10.55;5.50;;;8.80;74.10;;;;;;5097317;28;20036;-92
2024/03/10 03:49:37;;;;;;;10.13;6.05;;;8.90;74.90;;;;;;5097693;28;20024;-91
2024/03/10 03:52:06;;;;;;;12.88;6.07;;;8.90;74.30;;;;;;5097529;28;20024;-92
2024/03/10 03:54:32;;;;;;;8.95;5.35;;;8.90;74.80;;;;;;5101467;28;20019;-91
2024/03/10 03:56:58;;;;;;;11.23;6.13;;;8.80;73.90;;;;;;5104266;28;20028;-92
2024/03/10 03:59:24;;;;;;;10.40;6.28;;;8.90;74.10;;;;;;5090851;28;20043;-91
2024/03/10 04:01:53;;;;;;;10.57;6.38;;;8.80;74.10;;;;;;5095435;28;20024;-89
2024/03/10 04:04:19;;;;;;;11.35;6.20;;;8.80;74.40;;;;;;5095785;28;20095;-93
2024/03/10 04:06:45;;;;;;;11.07;5.95;;;8.80;74.40;;;;;;5107905;28;20418;-92
2024/03/10 04:09:12;;;;;;;7.95;5.60;;;8.80;74.20;;;;;;5099808;28;20027;-92
2024/03/10 04:11:39;;;;;;;8.30;5.65;;;8.80;74.20;;;;;;5086387;28;20028;-91
2024/03/10 04:14:07;;;;;;;8.52;6.40;;;8.80;74.00;;;;;;5100601;28;20114;-91
2024/03/10 04:16:35;;;;;;;9.80;5.18;;;8.80;74.10;;;;;;5097739;28;20062;-92
2024/03/10 04:19:04;;;;;;;8.55;5.57;;;8.80;73.70;;;;;;5102899;28;20506;-92
2024/03/10 04:21:30;;;;;;;8.65;5.50;;;8.80;73.70;;;;;;5096508;28;20024;-92
2024/03/10 04:23:56;;;;;;;9.05;5.88;;;8.80;73.70;;;;;;5089299;28;20106;-92
2024/03/10 04:26:23;;;;;;;9.13;4.78;;;8.70;74.10;;;;;;5092294;28;20075;-93
2024/03/10 04:28:49;;;;;;;9.23;5.72;;;8.80;74.00;;;;;;5094399;28;20032;-91
2024/03/10 04:31:16;;;;;;;10.10;5.93;;;8.70;73.80;;;;;;5104530;28;20036;-91
2024/03/10 04:33:42;;;;;;;8.15;5.95;;;8.70;73.90;;;;;;5100225;28;20045;-92
2024/03/10 04:36:08;;;;;;;9.20;6.28;;;8.70;73.80;;;;;;5104997;28;20028;-91
2024/03/10 04:38:34;;;;;;;8.10;5.75;;;8.60;74.20;;;;;;5103688;28;20025;-91
2024/03/10 04:41:00;;;;;;;9.10;7.05;;;8.70;74.00;;;;;;5095893;28;20026;-93
2024/03/10 04:43:26;;;;;;;7.22;5.28;;;8.70;73.80;;;;;;5096790;28;20024;-92
2024/03/10 04:45:54;;;;;;;8.85;5.30;;;8.70;73.70;;;;;;5102382;28;20027;-92
2024/03/10 04:48:20;;;;;;;7.68;5.80;;;8.70;73.60;;;;;;5100262;28;20443;-91
2024/03/10 04:50:46;;;;;;;11.13;5.32;;;8.70;73.40;;;;;;5112958;28;20164;-91
2024/03/10 04:53:11;;;;;;;8.18;4.55;;;8.60;73.50;;;;;;5103094;28;20030;-91
2024/03/10 04:55:37;;;;;;;9.20;5.75;;;8.60;73.50;;;;;;5099977;28;20020;-92
2024/03/10 04:58:03;;;;;;;8.38;6.10;;;8.60;73.50;;;;;;5105257;28;20047;-89
2024/03/10 05:00:28;;;;;;;8.68;6.07;;;8.60;73.70;;;;;;5103878;28;20038;-93
2024/03/10 05:02:54;;;;;;;10.45;5.28;;;8.60;73.90;;;;;;5103949;28;20063;-91
2024/03/10 05:05:21;;;;;;;9.20;5.53;;;8.60;74.00;;;;;;5089633;28;20023;-92
2024/03/10 05:07:51;;;;;;;8.48;5.60;;;8.60;74.00;;;;;;5101594;28;20046;-92
2024/03/10 05:10:17;;;;;;;7.72;5.75;;;8.60;74.10;;;;;;5104091;28;20070;-91
2024/03/10 05:12:43;;;;;;;8.27;5.45;;;8.50;74.10;;;;;;5095343;28;20036;-93
2024/03/10 05:15:09;;;;;;;9.73;5.63;;;8.50;74.40;;;;;;5092784;28;20020;-93
2024/03/10 05:17:35;;;;;;;8.45;5.22;;;8.50;74.40;;;;;;5099773;28;20024;-92
2024/03/10 05:20:00;;;;;;;9.27;5.20;;;8.50;74.60;;;;;;5098953;28;20039;-92
2024/03/10 05:22:26;;;;;;;9.63;6.00;;;8.50;74.80;;;;;;5094087;28;20024;-92
2024/03/10 05:24:52;;;;;;;9.38;5.32;;;8.50;75.10;;;;;;5096508;28;20080;-91
2024/03/10 05:27:17;;;;;;;9.38;5.90;;;8.40;75.30;;;;;;5093590;28;20028;-92
2024/03/10 05:29:43;;;;;;;11.32;6.53;;;8.40;75.90;;;;;;5106127;28;20024;-91
2024/03/10 05:32:08;;;;;;;9.00;4.97;;;8.40;75.40;;;;;;5107191;28;20031;-91
2024/03/10 05:34:37;;;;;;;8.93;5.38;;;8.40;75.30;;;;;;5098163;28;20040;-92
2024/03/10 05:37:05;;;;;;;7.95;6.13;;;8.40;75.50;;;;;;5097145;28;20055;-91
2024/03/10 05:39:32;;;;;;;10.68;5.80;;;8.40;75.20;;;;;;5101017;28;20050;-91
2024/03/10 05:41:59;;;;;;;9.48;5.38;;;8.40;75.50;;;;;;5106473;28;20020;-92
2024/03/10 05:44:24;;;;;;;11.43;5.57;;;8.30;75.60;;;;;;5102378;28;20486;-92
2024/03/10 05:46:50;;;;;;;6.97;5.30;;;8.30;75.50;;;;;;5106639;28;20031;-92
2024/03/10 05:49:16;;;;;;;8.35;5.57;;;8.40;75.40;;;;;;5109761;28;20166;-92
2024/03/10 05:51:41;;;;;;;7.80;5.13;;;8.30;75.50;;;;;;5098093;28;20043;-94
2024/03/10 05:54:07;;;;;;;8.90;5.85;;;8.30;75.30;;;;;;5101656;28;20038;-91
2024/03/10 05:56:33;;;;;;;8.23;5.53;;;8.30;75.60;;;;;;5097625;28;20017;-92
2024/03/10 05:59:00;;;;;;;8.65;5.85;;;8.30;75.70;;;;;;5105365;28;20115;-91
2024/03/10 06:01:28;;;;;;;9.75;4.88;;;8.20;76.00;;;;;;5106168;28;20020;-92
2024/03/10 06:03:54;;;;;;;9.38;6.50;;;8.30;76.10;;;;;;5115324;28;20075;-91
2024/03/10 06:06:21;;;;;;;9.70;5.75;;;8.20;76.10;;;;;;5110608;28;20390;-92
2024/03/10 06:08:47;;;;;;;8.38;5.40;;;8.20;76.00;;;;;;5105874;28;20024;-92
2024/03/10 06:11:13;;;;;;;10.20;5.50;;;8.20;75.90;;;;;;5103387;28;20024;-91
2024/03/10 06:13:39;;;;;;;9.05;5.00;;;8.20;76.20;;;;;;5103677;28;20013;-92
2024/03/10 06:16:07;;;;;;;9.32;5.90;;;8.10;76.10;;;;;;5095521;28;20019;-93
2024/03/10 06:25:22;;;;;;;11.13;6.72;;;8.20;76.40;;;;;;5099974;28;20046;-93
2024/03/10 06:26:49;;;;;;;9.70;5.25;;;8.20;76.50;;;;;;5102812;28;20039;-92
2024/03/10 06:29:14;;;;;;;8.48;5.57;;;8.20;76.60;;;;;;5106347;28;20413;-92
2024/03/10 06:31:40;;;;;;;8.73;5.50;;;8.20;76.70;;;;;;5100322;28;20643;-92
2024/03/10 06:34:05;;;;;;;10.25;6.43;;;8.20;76.60;;;;;;5101154;28;20023;-91
2024/03/10 06:36:34;;;;;;;8.48;5.45;;;8.10;76.60;;;;;;5113956;28;20080;-91
2024/03/10 06:38:59;;;;;;;9.30;6.40;;;8.10;76.80;;;;;;5108134;28;20024;-92
2024/03/10 06:41:25;;;;;;;8.60;6.80;;;8.10;76.80;;;;;;5112540;28;20105;-92
2024/03/10 06:43:52;;;;;;;10.07;6.70;;;8.10;76.70;;;;;;5105766;28;20046;-90
2024/03/10 06:46:18;;;;;;;8.40;5.30;;;8.10;76.80;;;;;;5108996;28;20451;-91
2024/03/10 06:48:43;;;;;;;10.38;8.07;;;8.10;76.80;;;;;;5105728;28;20020;-91
2024/03/10 06:51:10;;;;;;;11.82;7.07;;;8.10;76.90;;;;;;5105796;28;20032;-91
2024/03/10 06:53:37;;;;;;;10.57;5.97;;;8.10;77.20;;;;;;5105345;28;20039;-92
2024/03/10 06:56:03;;;;;;;7.63;5.22;;;8.10;77.20;;;;;;5098413;28;20025;-92
2024/03/10 06:58:30;;;;;;;9.13;6.45;;;8.20;78.20;;;;;;5100978;28;20024;-92
2024/03/10 07:00:56;;;;;;;15.82;9.38;;;8.10;77.20;;;;;;5103198;28;20039;-92
2024/03/10 07:03:21;;;;;;;17.25;10.27;;;8.10;77.30;;;;;;5102596;28;20102;-94
2024/03/10 07:05:50;;;;;;;14.32;8.38;;;8.10;77.40;;;;;;5101262;28;20075;-91
2024/03/10 07:08:17;;;;;;;11.23;7.57;;;8.10;77.30;;;;;;5100191;28;20039;-92
2024/03/10 07:10:43;;;;;;;13.48;8.82;;;8.20;77.60;;;;;;5102654;28;20028;-91
2024/03/10 07:13:09;;;;;;;13.02;9.38;;;8.10;77.40;;;;;;5098129;28;20032;-91
2024/03/10 07:15:34;;;;;;;13.77;10.60;;;8.20;78.30;;;;;;5098367;28;20020;-92
2024/03/10 07:18:00;;;;;;;15.63;11.82;;;8.20;77.50;;;;;;5096252;28;20027;-92
2024/03/10 07:20:26;;;;;;;14.05;8.38;;;8.20;77.60;;;;;;5108868;28;20592;-93
2024/03/10 07:22:53;;;;;;;16.17;11.05;;;8.20;77.70;;;;;;5093906;28;20029;-93
2024/03/10 07:25:19;;;;;;;18.27;14.55;;;8.20;77.90;;;;;;5094243;28;20035;-93
2024/03/10 07:27:45;;;;;;;12.10;8.15;;;8.30;77.80;;;;;;5104347;28;20032;-93
2024/03/10 07:30:12;;;;;;;12.30;6.40;;;8.30;77.40;;;;;;5098807;28;20024;-92
2024/03/10 07:32:38;;;;;;;14.52;9.93;;;8.30;77.10;;;;;;5101855;28;20069;-92
2024/03/10 07:35:05;;;;;;;19.70;13.77;;;8.40;76.70;;;;;;5093595;28;20540;-93
2024/03/10 07:37:30;;;;;;;11.10;7.63;;;8.50;76.20;;;;;;5111138;28;20058;-93
2024/03/10 07:39:56;;;;;;;11.98;7.65;;;8.50;76.20;;;;;;5104877;28;20024;-92
2024/03/10 07:42:23;;;;;;;12.52;7.18;;;8.60;75.90;;;;;;5100936;28;20019;-91
2024/03/10 07:44:49;;;;;;;13.35;6.80;;;8.60;75.80;;;;;;5098699;28;20114;-93
2024/03/10 07:47:14;;;;;;;8.30;6.80;;;8.60;75.40;;;;;;5105348;28;20510;-91
2024/03/10 07:49:40;;;;;;;11.05;6.97;;;8.60;75.50;;;;;;5106812;28;20024;-90
2024/03/10 07:52:06;;;;;;;13.38;8.30;;;8.70;75.90;;;;;;5099539;28;20028;-91
2024/03/10 07:54:32;;;;;;;10.10;6.00;;;8.70;74.70;;;;;;5099334;28;20027;-92
2024/03/10 07:56:58;;;;;;;10.75;7.80;;;8.80;74.10;;;;;;5091017;28;20103;-93
2024/03/10 07:59:25;;;;;;;13.82;7.32;;;8.90;74.30;;;;;;5098208;28;20020;-93
2024/03/10 08:01:51;;;;;;;10.18;6.95;;;9.00;74.30;;;;;;5105450;28;20055;-92
2024/03/10 08:04:17;;;;;;;9.90;6.85;;;9.00;73.90;;;;;;5098213;28;20020;-93
2024/03/10 08:06:43;;;;;;;8.95;6.35;;;9.10;73.00;;;;;;5093856;28;20023;-92
2024/03/10 08:09:09;;;;;;;10.48;6.00;;;9.10;73.10;;;;;;5096253;28;20089;-92
2024/03/10 08:11:35;;;;;;;10.55;6.60;;;9.10;72.60;;;;;;5091174;28;20063;-91
2024/03/10 08:14:01;;;;;;;9.63;6.47;;;9.10;72.70;;;;;;5097550;28;20016;-92
2024/03/10 08:16:27;;;;;;;8.80;5.47;;;9.10;72.60;;;;;;5099778;28;20046;-93
2024/03/10 08:18:52;;;;;;;12.98;7.75;;;9.10;72.70;;;;;;5088256;28;20016;-92
2024/03/10 08:21:22;;;;;;;10.23;7.47;;;9.10;72.90;;;;;;5098512;28;20610;-92
2024/03/10 08:23:49;;;;;;;12.52;6.65;;;9.10;73.10;;;;;;5097056;28;20489;-92
2024/03/10 08:26:15;;;;;;;8.77;6.20;;;9.10;73.40;;;;;;5098372;28;20047;-93
2024/03/10 08:28:42;;;;;;;11.57;5.95;;;9.20;73.00;;;;;;5096715;28;20012;-91
2024/03/10 08:31:08;;;;;;;11.65;6.47;;;9.20;72.20;;;;;;5107087;28;20027;-92
2024/03/10 08:33:34;;;;;;;10.70;6.32;;;9.10;72.20;;;;;;5107467;28;20026;-91
2024/03/10 08:36:00;;;;;;;13.00;7.00;;;9.10;72.30;;;;;;5100983;28;20035;-92
2024/03/10 08:38:26;;;;;;;8.80;6.13;;;9.20;72.20;;;;;;5095741;28;20012;-92
2024/03/10 08:40:55;;;;;;;10.80;6.20;;;9.20;71.80;;;;;;5091631;28;20085;-92
2024/03/10 08:43:24;;;;;;;12.40;5.63;;;9.30;71.40;;;;;;5097412;28;20123;-94
2024/03/10 08:45:49;;;;;;;9.43;7.18;;;9.30;71.60;;;;;;5106888;28;20028;-93
2024/03/10 08:48:15;;;;;;;10.15;6.00;;;9.30;71.30;;;;;;5109277;28;20062;-93
2024/03/10 08:50:42;;;;;;;11.75;7.35;;;9.30;70.80;;;;;;5097370;28;20038;-91
2024/03/10 08:53:08;;;;;;;10.82;6.22;;;9.30;70.60;;;;;;5098321;28;20031;-92
2024/03/10 08:55:35;;;;;;;10.70;7.22;;;9.40;70.40;;;;;;5104789;28;20020;-92
2024/03/10 08:58:03;;;;;;;11.35;6.68;;;9.50;69.40;;;;;;5098360;28;20016;-93
2024/03/10 09:00:29;;;;;;;8.15;6.35;;;9.60;69.80;;;;;;5096395;28;20024;-93
2024/03/10 09:02:55;;;;;;;10.70;6.30;;;9.70;69.30;;;;;;5095871;28;20035;-93
2024/03/10 09:05:20;;;;;;;11.68;6.65;;;9.80;68.40;;;;;;5109065;28;20024;-92
2024/03/10 09:07:47;;;;;;;10.20;6.70;;;9.90;68.00;;;;;;5099807;28;20019;-93
2024/03/10 09:10:13;;;;;;;10.15;6.50;;;10.00;67.60;;;;;;5095661;28;20028;-91
2024/03/10 09:12:39;;;;;;;9.80;6.47;;;10.10;66.80;;;;;;5098713;28;20107;-91
2024/03/10 09:15:05;;;;;;;9.90;6.03;;;10.20;65.80;;;;;;5096633;28;20050;-92
2024/03/10 09:17:31;;;;;;;10.68;6.35;;;10.30;65.80;;;;;;5103217;28;20087;-92
2024/03/10 09:19:58;;;;;;;10.77;6.57;;;10.30;64.60;;;;;;5094538;28;20113;-90
2024/03/10 09:22:24;;;;;;;6.82;5.03;;;10.30;65.00;;;;;;5101107;28;20073;-92
2024/03/10 09:24:49;;;;;;;8.88;6.07;;;10.30;64.10;;;;;;5102552;28;20016;-92
2024/03/10 09:27:18;;;;;;;9.85;5.93;;;10.30;64.70;;;;;;5100973;28;20517;-92
2024/03/10 09:29:46;;;;;;;9.13;6.25;;;10.30;64.30;;;;;;5096476;28;20081;-92
2024/03/10 09:32:15;;;;;;;8.32;5.30;;;10.30;64.70;;;;;;5096171;28;20024;-93
2024/03/10 09:34:42;;;;;;;15.50;7.90;;;10.30;64.60;;;;;;5110090;28;20482;-91
2024/03/10 09:37:08;;;;;;;11.10;6.32;;;10.40;64.00;;;;;;5106566;28;20107;-92
2024/03/10 09:39:34;;;;;;;15.65;8.10;;;10.40;63.90;;;;;;5096150;28;20073;-91
2024/03/10 09:42:00;;;;;;;11.10;6.05;;;10.30;64.10;;;;;;5111806;28;20035;-92
2024/03/10 09:44:26;;;;;;;11.75;7.03;;;10.30;64.10;;;;;;5106381;28;20031;-92
2024/03/10 09:46:53;;;;;;;10.00;5.97;;;10.30;64.70;;;;;;5101875;28;20068;-92
2024/03/10 09:49:20;;;;;;;9.98;7.32;;;10.30;65.00;;;;;;5107689;28;20401;-93
2024/03/10 09:51:49;;;;;;;10.02;7.20;;;10.50;64.60;;;;;;5096578;28;20035;-92
2024/03/10 09:54:18;;;;;;;14.30;7.78;;;10.70;63.40;;;;;;5098492;28;20027;-92
2024/03/10 09:56:50;;;;;;;11.95;8.07;;;10.70;62.60;;;;;;5102567;28;20019;-92
2024/03/10 09:59:27;;;;;;;11.25;8.55;;;10.80;62.30;;;;;;5106271;28;20063;-94
2024/03/10 10:01:53;;;;;;;12.63;10.00;;;10.80;62.00;;;;;;5104318;28;20058;-92
2024/03/10 10:04:25;;;;;;;10.05;6.00;;;11.00;61.30;;;;;;5108096;28;20324;-92
2024/03/10 10:06:52;;;;;;;9.13;5.85;;;11.10;61.90;;;;;;5112479;28;20028;-92
2024/03/10 10:09:17;;;;;;;9.18;6.95;;;11.10;60.70;;;;;;5098282;28;20032;-92
2024/03/10 10:11:46;;;;;;;10.60;6.50;;;11.30;59.50;;;;;;5102147;28;20073;-91
2024/03/10 10:14:22;;;;;;;7.47;5.75;;;11.40;59.80;;;;;;5107838;28;20019;-92
2024/03/10 10:16:56;;;;;;;11.75;6.57;;;11.50;58.70;;;;;;5100502;28;20148;-92
2024/03/10 10:19:32;;;;;;;7.47;5.43;;;11.50;59.40;;;;;;5113287;28;20016;-93
2024/03/10 10:21:58;;;;;;;17.00;5.50;;;11.60;58.60;;;;;;5113670;28;20094;-90
2024/03/10 10:24:23;;;;;;;10.63;5.65;;;11.50;59.50;;;;;;5106226;28;20020;-93
2024/03/10 10:26:58;;;;;;;9.90;6.63;;;11.60;59.30;;;;;;5110711;28;20038;-93
2024/03/10 10:29:25;;;;;;;9.02;6.30;;;11.60;58.30;;;;;;5116969;28;20102;-92
2024/03/10 10:32:00;;;;;;;8.38;5.57;;;11.50;58.10;;;;;;5100064;28;20505;-92
2024/03/10 10:34:27;;;;;;;7.78;5.18;;;11.70;58.10;;;;;;5111685;28;20016;-93
2024/03/10 10:36:55;;;;;;;8.82;4.90;;;11.70;57.00;;;;;;5105744;28;20012;-92
2024/03/10 10:39:27;;;;;;;8.48;4.72;;;11.70;58.30;;;;;;5105958;28;20020;-92
2024/03/10 10:41:56;;;;;;;8.43;4.75;;;11.70;58.10;;;;;;5108311;28;20015;-91
2024/03/10 10:44:26;;;;;;;9.18;5.43;;;11.80;57.40;;;;;;5113765;28;20024;-92
2024/03/10 10:46:52;;;;;;;8.77;4.28;;;11.80;57.30;;;;;;5108601;28;20034;-92
2024/03/10 10:49:19;;;;;;;8.00;5.00;;;11.70;57.90;;;;;;5106932;28;20020;-91
2024/03/10 10:51:52;;;;;;;7.43;5.38;;;11.90;57.50;;;;;;5109693;28;20036;-92
2024/03/10 10:54:19;;;;;;;8.68;5.03;;;12.00;56.30;;;;;;5118060;28;20436;-92
2024/03/10 10:56:54;;;;;;;7.85;4.47;;;11.90;56.30;;;;;;5100468;28;20016;-92
2024/03/10 10:59:24;;;;;;;8.23;5.88;;;12.00;56.70;;;;;;5100009;28;20073;-92
2024/03/10 11:01:55;;;;;;;8.05;4.65;;;12.10;55.70;;;;;;5105146;28;20024;-93
2024/03/10 11:04:25;;;;;;;7.70;5.25;;;12.20;55.10;;;;;;5107016;28;20383;-91
2024/03/10 11:06:55;;;;;;;8.52;5.90;;;12.10;55.20;;;;;;5109716;28;20016;-93
2024/03/10 11:09:28;;;;;;;9.27;7.05;;;12.10;55.10;;;;;;5113579;28;20050;-93
2024/03/10 11:11:54;;;;;;;7.18;5.40;;;12.20;55.40;;;;;;5108718;28;20108;-92
2024/03/10 11:14:24;;;;;;;8.93;5.03;;;12.10;54.60;;;;;;5106992;28;20016;-92
2024/03/10 11:16:50;;;;;;;7.75;5.47;;;12.20;54.80;;;;;;5100473;28;20089;-92
2024/03/10 11:19:18;;;;;;;9.40;5.53;;;12.20;54.30;;;;;;5111042;28;20549;-92
2024/03/10 11:21:47;;;;;;;9.55;6.65;;;12.30;54.50;;;;;;5094534;28;20468;-92
2024/03/10 11:24:17;;;;;;;8.55;5.45;;;12.40;54.10;;;;;;5105937;28;20065;-90
2024/03/10 11:26:43;;;;;;;8.40;5.50;;;12.60;53.80;;;;;;5095623;28;20111;-92
2024/03/10 11:29:27;;;;;;;9.23;6.25;;;12.70;54.40;;;;;;5106057;28;20064;-92
2024/03/10 11:31:57;;;;;;;10.38;5.55;;;12.70;53.00;;;;;;5101105;28;20102;-92
2024/03/10 11:34:24;;;;;;;14.73;9.32;;;12.70;52.60;;;;;;5099417;28;20027;-92
2024/03/10 11:36:50;;;;;;;6.93;5.00;;;12.90;53.70;;;;;;5112041;28;20016;-92
2024/03/10 11:39:22;;;;;;;6.35;4.38;;;13.00;51.40;;;;;;5099397;28;20031;-92
2024/03/10 11:41:48;;;;;;;9.75;6.13;;;13.00;51.40;;;;;;5102138;28;20041;-93
2024/03/10 11:44:16;;;;;;;6.40;4.15;;;13.30;50.00;;;;;;5114281;28;20039;-91
2024/03/10 11:46:43;;;;;;;7.10;4.75;;;14.00;49.50;;;;;;5114697;28;20012;-93
2024/03/10 11:49:09;;;;;;;7.47;3.47;;;14.80;47.50;;;;;;5124558;28;20062;-93
2024/03/10 11:51:35;;;;;;;8.20;3.78;;;15.20;45.80;;;;;;5126556;28;20056;-92
2024/03/10 11:54:03;;;;;;;7.53;4.88;;;15.70;44.70;;;;;;5119310;28;20014;-94
2024/03/10 11:56:33;;;;;;;6.47;3.88;;;15.40;43.20;;;;;;5123418;28;20020;-93
2024/03/10 11:58:59;;;;;;;7.25;4.60;;;15.50;44.20;;;;;;5119760;28;20170;-93
2024/03/10 12:01:28;;;;;;;6.50;4.72;;;15.40;43.30;;;;;;5125354;28;20050;-94
2024/03/10 12:03:58;;;;;;;7.78;4.65;;;15.40;44.20;;;;;;5105294;28;20022;-92
2024/03/10 12:06:24;;;;;;;7.95;4.78;;;14.90;46.30;;;;;;5112402;28;20020;-92
2024/03/10 12:08:50;;;;;;;6.78;4.05;;;14.60;45.80;;;;;;5096960;28;20120;-93
2024/03/10 12:11:17;;;;;;;9.45;4.88;;;14.50;46.30;;;;;;5095510;28;20092;-93
2024/03/10 12:13:44;;;;;;;7.47;4.65;;;14.10;47.60;;;;;;5093512;28;20107;-92
2024/03/10 12:16:11;;;;;;;8.93;5.05;;;14.00;47.60;;;;;;5112353;28;20023;-93
2024/03/10 12:18:40;;;;;;;9.52;5.05;;;13.90;47.70;;;;;;5094914;28;20032;-94
2024/03/10 12:21:10;;;;;;;9.48;4.60;;;14.00;48.30;;;;;;5097186;28;20490;-92
2024/03/10 12:23:37;;;;;;;6.20;4.47;;;13.70;49.00;;;;;;5101229;28;20024;-91
2024/03/10 12:26:12;;;;;;;9.60;4.53;;;13.90;47.70;;;;;;5103760;28;20028;-92
2024/03/10 12:28:39;;;;;;;9.15;4.65;;;13.90;48.90;;;;;;5098002;28;20054;-92
2024/03/10 12:31:13;;;;;;;10.43;4.45;;;13.60;50.10;;;;;;5095651;28;20028;-91
2024/03/10 12:33:39;;;;;;;;;;;13.30;51.30;;;;;;5095443;28;20420;-94
2024/03/10 12:36:15;;;;;;;8.18;4.78;;;13.10;53.00;;;;;;5097510;28;19959;-93
2024/03/10 12:38:44;;;;;;;6.75;4.88;;;13.10;51.70;;;;;;5095622;28;20012;-93
2024/03/10 12:41:12;;;;;;;10.00;5.28;;;13.30;52.40;;;;;;5099517;28;20127;-93
2024/03/10 12:43:38;;;;;;;8.98;5.40;;;13.30;52.30;;;;;;5102005;28;20027;-93
2024/03/10 12:46:06;;;;;;;7.90;4.72;;;13.00;52.30;;;;;;5093961;28;20165;-91
2024/03/10 12:48:31;;;;;;;8.77;5.82;;;13.10;52.80;;;;;;5090930;28;20032;-91
2024/03/10 12:50:57;;;;;;;9.50;5.15;;;13.20;52.30;;;;;;5101187;28;20053;-93
2024/03/10 12:53:23;;;;;;;11.20;6.53;;;13.00;52.60;;;;;;5093649;28;20016;-92
2024/03/10 12:55:50;;;;;;;8.10;5.28;;;13.00;53.20;;;;;;5100456;28;20026;-93
2024/03/10 12:58:16;;;;;;;10.65;5.53;;;12.90;53.30;;;;;;5096646;28;20028;-93
2024/03/10 13:00:43;;;;;;;8.50;5.20;;;13.00;52.80;;;;;;5105668;28;20032;-91
2024/03/10 13:03:10;;;;;;;10.02;6.80;;;13.10;52.60;;;;;;5097447;28;20032;-91
2024/03/10 13:05:36;;;;;;;10.35;5.45;;;13.10;53.20;;;;;;5095980;28;20074;-92
2024/03/10 13:08:01;;;;;;;9.27;5.10;;;13.10;52.60;;;;;;5103739;28;20027;-92